ADDS METAR Data INFO
IDs: Format: Raw Decoded Include TAF

Data at: 1538 UTC 25 Feb 2018

METAR for:KHWO (Hollywood/North Perr, FL, US)
Text:KHWO 251520Z 11010KT 10SM SCT029 SCT055 28/19 A3021 RMK AO2 T02780194
Temperature: 27.8°C ( 82°F)
Dewpoint: 19.4°C ( 67°F) [RH = 60%]
Pressure (altimeter):30.21 inches Hg (1023.1 mb)
Winds:from the ESE (110 degrees) at 12 MPH (10 knots; 5.1 m/s)
Visibility:10 or more sm (16+ km)
Ceiling:at least 12,000 feet AGL
Clouds: scattered clouds at 2900 feet AGL, scattered clouds at 5500 feet AGL